createdAt,value
2019-01-09T00:00:08.401Z,528.70
2019-01-09T00:02:12.574Z,516.40
2019-01-09T00:04:16.899Z,491.83
2019-01-09T00:06:20.967Z,468.70
2019-01-09T00:08:25.299Z,453.63
2019-01-09T00:10:29.430Z,441.17
2019-01-09T00:12:33.602Z,442.57
2019-01-09T00:14:37.772Z,492.53
2019-01-09T00:16:42.017Z,573.33
2019-01-09T00:18:48.737Z,623.80
2019-01-09T00:20:54.557Z,596.67
2019-01-09T00:23:02.297Z,583.87
2019-01-09T00:25:06.755Z,582.60
2019-01-09T00:27:11.014Z,564.83
2019-01-09T00:29:15.143Z,911.57
2019-01-09T00:31:19.316Z,580.53
2019-01-09T00:33:23.967Z,531.67
2019-01-09T00:35:32.786Z,445.93
2019-01-09T00:37:34.011Z,323.73
2019-01-09T00:39:38.156Z,314.77
2019-01-09T00:41:42.263Z,347.27
2019-01-09T00:43:46.509Z,350.80
2019-01-09T00:45:53.882Z,352.97
2019-01-09T00:48:00.520Z,347.27
2019-01-09T00:50:05.455Z,344.57
2019-01-09T00:52:10.156Z,329.87
2019-01-09T00:54:14.532Z,320.37
2019-01-09T00:56:18.590Z,308.13
2019-01-09T00:58:22.807Z,305.70
2019-01-09T01:00:26.895Z,293.60
2019-01-09T01:03:09.922Z,295.90
2019-01-09T01:05:46.289Z,284.70
2019-01-09T01:08:28.740Z,281.47
2019-01-09T01:11:04.477Z,276.83
2019-01-09T01:13:41.390Z,267.53
2019-01-09T01:16:37.280Z,262.70
2019-01-09T01:19:06.487Z,255.63
2019-01-09T01:21:39.380Z,245.13
2019-01-09T01:24:21.866Z,244.33
2019-01-09T01:27:04.226Z,233.40
2019-01-09T01:29:59.074Z,226.53
2019-01-09T01:32:53.369Z,230.50
2019-01-09T01:35:54.675Z,225.50
2019-01-09T01:38:23.967Z,215.23
2019-01-09T01:40:45.593Z,206.90
2019-01-09T01:43:31.711Z,207.03
2019-01-09T01:46:09.719Z,191.07
2019-01-09T01:49:00.632Z,194.40
2019-01-09T01:51:37.847Z,187.23
2019-01-09T01:54:23.220Z,182.20
2019-01-09T01:56:55.247Z,170.63
2019-01-09T01:59:36.634Z,166.53
2019-01-09T02:02:28.289Z,162.50
2019-01-09T02:05:07.730Z,156.07
2019-01-09T02:07:26.868Z,158.67
2019-01-09T02:10:08.044Z,154.90
2019-01-09T02:12:22.035Z,146.57
2019-01-09T02:15:18.033Z,143.87
2019-01-09T02:18:16.184Z,140.43
2019-01-09T02:20:49.754Z,137.73
2019-01-09T02:23:29.146Z,136.00
2019-01-09T02:25:54.940Z,128.97
2019-01-09T02:28:42.652Z,128.40
2019-01-09T02:31:56.945Z,122.37
2019-01-09T02:34:01.031Z,121.83
2019-01-09T02:36:13.389Z,119.10
2019-01-09T02:38:11.307Z,112.63
2019-01-09T02:40:15.402Z,114.67
2019-01-09T02:42:19.585Z,112.27
2019-01-09T02:44:32.086Z,111.67
2019-01-09T02:46:29.881Z,108.27
2019-01-09T02:48:33.984Z,109.17
2019-01-09T02:50:38.534Z,108.80
2019-01-09T02:52:45.198Z,99.93
2019-01-09T02:54:56.193Z,99.87
2019-01-09T02:57:00.139Z,100.03
2019-01-09T02:59:04.282Z,99.17
2019-01-09T03:01:08.680Z,93.90
2019-01-09T03:03:12.757Z,92.57
2019-01-09T03:05:16.787Z,92.40
2019-01-09T03:07:21.271Z,85.93
2019-01-09T03:09:25.844Z,86.13
2019-01-09T03:11:29.955Z,84.70
2019-01-09T03:13:34.061Z,82.90
2019-01-09T03:15:38.205Z,85.17
2019-01-09T03:17:42.567Z,78.40
2019-01-09T03:19:49.345Z,77.80
2019-01-09T03:21:54.675Z,76.80
2019-01-09T03:24:00.458Z,73.90
2019-01-09T03:26:05.514Z,73.70
2019-01-09T03:28:09.572Z,70.77
2019-01-09T03:30:13.646Z,69.37
2019-01-09T03:32:17.781Z,70.07
2019-01-09T03:34:21.826Z,65.50
2019-01-09T03:36:32.650Z,67.80
2019-01-09T03:38:31.730Z,65.40
2019-01-09T03:40:35.834Z,61.83
2019-01-09T03:42:39.810Z,59.87
2019-01-09T03:44:44.313Z,59.07
2019-01-09T03:46:49.309Z,61.67
2019-01-09T03:48:59.800Z,55.70
2019-01-09T03:51:10.548Z,58.47
2019-01-09T03:53:14.626Z,56.17
2019-01-09T03:55:18.822Z,55.07
2019-01-09T03:57:23.376Z,55.50
2019-01-09T03:59:28.296Z,52.90
2019-01-09T04:01:32.676Z,53.03
2019-01-09T04:03:37.662Z,53.60
2019-01-09T04:05:41.976Z,50.17
2019-01-09T04:07:46.583Z,48.67
2019-01-09T04:09:50.834Z,51.20
2019-01-09T04:11:56.339Z,46.03
2019-01-09T04:14:03.325Z,47.53
2019-01-09T04:16:08.019Z,46.23
2019-01-09T04:18:12.118Z,45.40
2019-01-09T04:20:16.217Z,45.03
2019-01-09T04:22:20.466Z,43.33
2019-01-09T04:24:25.254Z,42.83
2019-01-09T04:26:33.379Z,41.90
2019-01-09T04:28:39.688Z,41.23
2019-01-09T04:30:49.593Z,41.90
2019-01-09T04:32:53.679Z,39.60
2019-01-09T04:34:57.908Z,38.93
2019-01-09T04:37:02.314Z,37.63
2019-01-09T04:39:07.385Z,38.60
2019-01-09T04:41:11.580Z,37.00
2019-01-09T04:43:16.075Z,37.80
2019-01-09T04:45:20.214Z,37.27
2019-01-09T04:47:24.461Z,34.87
2019-01-09T04:49:30.092Z,34.57
2019-01-09T04:51:37.502Z,35.77
2019-01-09T04:53:47.604Z,33.60
2019-01-09T04:55:52.127Z,33.60
2019-01-09T04:57:56.351Z,32.17
2019-01-09T05:00:00.676Z,31.87
2019-01-09T05:02:04.837Z,32.60
2019-01-09T05:04:08.910Z,28.87
2019-01-09T05:06:18.839Z,31.17
2019-01-09T05:08:18.939Z,30.47
2019-01-09T05:10:24.709Z,28.30
2019-01-09T05:12:28.919Z,27.43
2019-01-09T05:14:34.780Z,27.80
2019-01-09T05:16:44.425Z,27.13
2019-01-09T05:18:54.580Z,27.80
2019-01-09T05:20:58.733Z,25.47
2019-01-09T05:23:03.343Z,24.40
2019-01-09T05:25:11.393Z,23.77
2019-01-09T05:27:15.704Z,24.93
2019-01-09T05:29:19.819Z,23.47
2019-01-09T05:31:28.937Z,23.50
2019-01-09T05:33:33.408Z,23.10
2019-01-09T05:35:38.839Z,24.00
2019-01-09T05:37:44.383Z,20.30
2019-01-09T05:39:50.817Z,21.93
2019-01-09T05:41:57.785Z,21.37
2019-01-09T05:44:02.036Z,20.70
2019-01-09T05:46:06.155Z,20.63
2019-01-09T05:48:10.271Z,19.70
2019-01-09T05:50:14.872Z,20.00
2019-01-09T05:52:19.034Z,17.97
2019-01-09T05:54:23.213Z,19.40
2019-01-09T05:56:27.781Z,18.73
2019-01-09T05:58:32.424Z,17.90
2019-01-09T06:00:39.219Z,17.17
2019-01-09T06:05:10.537Z,17.00
2019-01-09T06:07:18.651Z,16.00
2019-01-09T06:09:20.857Z,16.07
2019-01-09T06:11:24.983Z,17.27
2019-01-09T06:13:30.324Z,15.00
2019-01-09T06:15:34.927Z,14.77
2019-01-09T06:17:39.284Z,15.30
2019-01-09T06:19:44.167Z,14.80
2019-01-09T06:21:51.276Z,14.73
2019-01-09T06:23:57.770Z,14.70
2019-01-09T06:26:04.246Z,13.17
2019-01-09T06:28:08.382Z,13.13
2019-01-09T06:30:13.198Z,147.80
2019-01-09T06:32:17.923Z,255.07
2019-01-09T06:34:22.408Z,290.00
2019-01-09T06:36:26.669Z,332.03
2019-01-09T06:38:30.890Z,248.63
2019-01-09T06:40:35.107Z,248.50
2019-01-09T06:42:39.928Z,214.30
2019-01-09T06:44:43.991Z,92.33
2019-01-09T06:46:49.187Z,47.70
2019-01-09T06:48:57.519Z,62.60
2019-01-09T06:51:07.877Z,80.53
2019-01-09T06:53:12.534Z,254.03
2019-01-09T06:55:16.736Z,379.53
2019-01-09T06:57:20.793Z,501.20
2019-01-09T06:59:24.899Z,653.87
2019-01-09T07:01:29.261Z,965.40
2019-01-09T07:03:33.622Z,999.90
2019-01-09T07:05:37.861Z,999.90
2019-01-09T07:07:42.330Z,914.23
2019-01-09T07:09:46.542Z,791.77
2019-01-09T07:11:51.319Z,708.13
2019-01-09T07:13:56.242Z,630.47
2019-01-09T07:16:00.626Z,553.50
2019-01-09T07:18:06.543Z,458.77
2019-01-09T07:20:11.202Z,365.40
2019-01-09T07:22:15.344Z,337.73
2019-01-09T07:24:19.459Z,287.40
2019-01-09T07:26:23.601Z,286.33
2019-01-09T07:28:33.288Z,256.63
2019-01-09T07:30:43.699Z,245.30
2019-01-09T07:32:48.540Z,230.47
2019-01-09T07:34:52.818Z,233.93
2019-01-09T07:36:57.003Z,322.30
2019-01-09T07:39:04.638Z,484.70
2019-01-09T07:41:08.872Z,727.17
2019-01-09T07:43:13.120Z,521.07
2019-01-09T07:45:17.401Z,485.13
2019-01-09T07:47:21.606Z,469.50
2019-01-09T07:49:27.176Z,462.70
2019-01-09T07:51:32.424Z,447.83
2019-01-09T07:53:39.176Z,435.53
2019-01-09T07:55:50.053Z,841.07
2019-01-09T07:57:54.797Z,433.27
2019-01-09T07:59:58.858Z,672.00
2019-01-09T08:02:03.391Z,598.80
2019-01-09T08:04:07.641Z,581.83
2019-01-09T08:06:11.830Z,735.77
2019-01-09T08:08:17.276Z,394.57
2019-01-09T08:10:21.452Z,502.03
2019-01-09T08:12:25.656Z,694.17
2019-01-09T08:14:30.041Z,791.53
2019-01-09T08:16:35.509Z,843.10
2019-01-09T08:18:43.292Z,566.87
2019-01-09T08:20:53.109Z,421.87
2019-01-09T08:22:57.478Z,350.40
2019-01-09T08:25:01.928Z,376.70
2019-01-09T08:27:06.603Z,502.47
2019-01-09T08:29:10.777Z,571.70
2019-01-09T08:31:15.449Z,385.23
2019-01-09T08:33:19.533Z,537.70
2019-01-09T08:35:23.660Z,602.73
2019-01-09T08:37:28.177Z,413.57
2019-01-09T08:39:33.356Z,252.33
2019-01-09T08:41:38.232Z,999.90
2019-01-09T08:43:43.713Z,488.40
2019-01-09T08:45:49.605Z,784.63
2019-01-09T08:48:01.607Z,356.73
2019-01-09T08:50:07.224Z,909.10
2019-01-09T08:52:11.472Z,746.67
2019-01-09T08:54:15.700Z,618.40
2019-01-09T08:56:20.050Z,374.80
2019-01-09T08:58:24.174Z,792.50
2019-01-09T09:00:28.582Z,344.23
2019-01-09T09:02:32.883Z,249.50
2019-01-09T09:04:40.581Z,521.40
2019-01-09T09:06:47.806Z,609.40
2019-01-09T09:08:53.624Z,929.37
2019-01-09T09:11:01.275Z,591.70
2019-01-09T09:13:05.860Z,544.60
2019-01-09T09:15:12.456Z,467.53
2019-01-09T09:17:17.290Z,446.80
2019-01-09T09:19:22.011Z,531.40
2019-01-09T09:21:26.557Z,705.87
2019-01-09T09:23:30.843Z,707.93
2019-01-09T09:25:35.012Z,808.23
2019-01-09T09:27:39.178Z,755.07
2019-01-09T09:29:43.452Z,439.80
2019-01-09T09:31:50.696Z,375.20
2019-01-09T09:33:55.686Z,351.47
2019-01-09T09:36:06.083Z,647.77
2019-01-09T09:38:20.220Z,755.13
2019-01-09T09:40:19.190Z,970.23
2019-01-09T09:42:23.591Z,603.77
2019-01-09T09:44:28.400Z,574.60
2019-01-09T09:46:32.646Z,668.87
2019-01-09T09:48:36.854Z,556.30
2019-01-09T09:50:41.144Z,533.23
2019-01-09T09:52:45.330Z,515.27
2019-01-09T09:54:49.854Z,491.20
2019-01-09T09:56:57.442Z,481.70
2019-01-09T09:59:05.306Z,833.60
2019-01-09T10:01:15.395Z,483.20
2019-01-09T10:03:19.496Z,439.37
2019-01-09T10:05:23.623Z,613.73
2019-01-09T10:07:27.795Z,426.43
2019-01-09T10:09:32.249Z,421.43
2019-01-09T10:11:36.411Z,557.93
2019-01-09T10:13:40.568Z,684.77
2019-01-09T10:15:45.215Z,427.50
2019-01-09T10:17:49.413Z,539.37
2019-01-09T10:19:56.544Z,874.23
2019-01-09T10:22:00.684Z,655.50
2019-01-09T10:24:05.064Z,573.17
2019-01-09T10:26:09.257Z,563.40
2019-01-09T10:28:13.651Z,553.17
2019-01-09T10:30:18.559Z,558.53
2019-01-09T10:32:22.839Z,533.97
2019-01-09T10:34:27.732Z,527.30
2019-01-09T10:36:35.101Z,513.07
2019-01-09T10:38:44.603Z,485.90
2019-01-09T10:40:48.847Z,467.47
2019-01-09T10:42:53.161Z,509.00
2019-01-09T10:44:57.280Z,876.23
2019-01-09T10:47:01.383Z,793.10
2019-01-09T10:49:05.652Z,486.77
2019-01-09T10:51:10.231Z,431.83
2019-01-09T10:53:14.368Z,396.30
2019-01-09T10:55:18.601Z,383.77
2019-01-09T10:57:23.154Z,369.10
2019-01-09T10:59:27.305Z,347.80
2019-01-09T11:01:31.724Z,335.27
2019-01-09T11:03:38.743Z,715.67
2019-01-09T11:05:46.776Z,647.33
2019-01-09T11:07:50.773Z,442.80
2019-01-09T11:09:54.901Z,337.27
2019-01-09T11:11:59.039Z,312.40
2019-01-09T11:14:03.831Z,285.07
2019-01-09T11:16:08.354Z,274.37
2019-01-09T11:18:12.823Z,254.53
2019-01-09T11:20:18.742Z,242.67
2019-01-09T11:22:23.112Z,230.70
2019-01-09T11:24:28.001Z,225.40
2019-01-09T11:26:32.367Z,476.23
2019-01-09T11:28:37.066Z,687.33
2019-01-09T11:30:42.073Z,628.20
2019-01-09T11:32:47.709Z,672.03
2019-01-09T11:34:55.678Z,586.80
2019-01-09T11:37:02.996Z,640.27
2019-01-09T11:39:10.423Z,950.07
2019-01-09T11:41:14.517Z,509.23
2019-01-09T11:43:18.646Z,352.57
2019-01-09T11:45:22.783Z,273.93
2019-01-09T11:47:27.215Z,690.87
2019-01-09T11:49:31.415Z,618.27
2019-01-09T11:51:35.929Z,957.60
2019-01-09T11:53:40.500Z,939.37
2019-01-09T11:55:48.072Z,999.90
2019-01-09T11:57:55.558Z,919.67
2019-01-09T12:00:02.035Z,999.90
2019-01-09T12:02:06.546Z,999.90
2019-01-09T12:04:11.866Z,773.97
2019-01-09T12:06:16.154Z,686.33
2019-01-09T12:08:20.329Z,788.40
2019-01-09T12:10:30.157Z,518.93
2019-01-09T12:12:31.088Z,415.20
2019-01-09T12:14:36.879Z,360.10
2019-01-09T12:16:41.360Z,755.97
2019-01-09T12:18:46.724Z,669.13
2019-01-09T12:20:54.498Z,652.20
2019-01-09T12:23:09.759Z,391.30
2019-01-09T12:25:17.317Z,304.07
2019-01-09T12:27:23.430Z,306.27
2019-01-09T12:29:28.492Z,914.90
2019-01-09T12:31:35.822Z,391.17
2019-01-09T12:33:40.917Z,274.00
2019-01-09T12:35:45.570Z,240.73
2019-01-09T12:37:51.840Z,449.53
2019-01-09T12:40:00.524Z,666.67
2019-01-09T12:42:13.448Z,266.57
2019-01-09T12:44:17.936Z,216.40
2019-01-09T12:46:22.286Z,430.57
2019-01-09T12:48:26.979Z,517.90
2019-01-09T12:50:31.301Z,615.50
2019-01-09T12:52:35.423Z,490.33
2019-01-09T12:54:41.595Z,464.97
2019-01-09T12:56:46.131Z,433.93
2019-01-09T12:58:55.000Z,429.73
2019-01-09T13:01:02.202Z,416.53
2019-01-09T13:03:12.563Z,380.53
2019-01-09T13:05:17.428Z,356.57
2019-01-09T13:07:21.704Z,355.73
2019-01-09T13:09:27.964Z,357.07
2019-01-09T13:11:35.225Z,346.10
2019-01-09T13:13:44.173Z,645.40
2019-01-09T13:15:51.270Z,538.67
2019-01-09T13:17:56.337Z,543.33
2019-01-09T13:20:13.956Z,546.70
2019-01-09T13:22:18.223Z,545.17
2019-01-09T13:24:23.462Z,535.30
2019-01-09T13:26:29.688Z,755.10
2019-01-09T13:28:41.363Z,532.70
2019-01-09T13:30:50.231Z,509.33
2019-01-09T13:32:54.868Z,492.40
2019-01-09T13:35:04.318Z,471.50
2019-01-09T13:37:09.197Z,473.90
2019-01-09T13:39:13.876Z,455.40
2019-01-09T13:41:20.260Z,426.43
2019-01-09T13:43:28.331Z,413.10
2019-01-09T13:45:40.021Z,407.20
2019-01-09T13:47:50.000Z,393.70
2019-01-09T13:49:58.256Z,551.93
2019-01-09T13:52:05.889Z,729.27
2019-01-09T13:54:13.777Z,705.00
2019-01-09T13:56:24.228Z,959.90
2019-01-09T13:58:30.697Z,909.10
2019-01-09T14:00:36.248Z,999.90
2019-01-09T14:02:52.760Z,892.17
2019-01-09T14:04:57.022Z,999.90
2019-01-09T14:07:01.327Z,823.03
2019-01-09T14:09:12.453Z,668.03
2019-01-09T14:11:16.998Z,758.83
2019-01-09T14:13:21.235Z,716.13
2019-01-09T14:15:26.091Z,610.90
2019-01-09T14:17:31.727Z,533.07
2019-01-09T14:19:41.193Z,492.87
2019-01-09T14:21:48.604Z,457.50
2019-01-09T14:23:57.825Z,584.17
2019-01-09T14:26:02.372Z,730.80
2019-01-09T14:28:07.646Z,434.47
2019-01-09T14:30:24.034Z,396.47
2019-01-09T14:32:28.395Z,906.47
2019-01-09T14:34:38.104Z,768.90
2019-01-09T14:36:46.042Z,606.40
2019-01-09T14:38:52.243Z,401.53
2019-01-09T14:41:00.978Z,362.27
2019-01-09T14:43:05.774Z,327.20
2019-01-09T14:45:10.777Z,616.87
2019-01-09T14:47:16.080Z,356.97
2019-01-09T14:49:21.531Z,314.30
2019-01-09T14:51:45.227Z,296.10
2019-01-09T14:53:52.389Z,273.17
2019-01-09T14:56:02.876Z,257.63
2019-01-09T14:58:07.280Z,252.00
2019-01-09T15:00:18.328Z,353.60
2019-01-09T15:02:27.400Z,779.30
2019-01-09T15:04:32.108Z,961.70
2019-01-09T15:06:49.762Z,972.40
2019-01-09T15:09:00.797Z,721.50
2019-01-09T15:11:08.187Z,502.23
2019-01-09T15:13:18.700Z,363.30
2019-01-09T15:15:26.444Z,274.07
2019-01-09T15:17:31.471Z,232.90
2019-01-09T15:19:37.230Z,198.90
2019-01-09T15:21:49.020Z,182.10
2019-01-09T15:24:08.076Z,167.70
2019-01-09T15:26:05.996Z,151.77
2019-01-09T15:28:11.482Z,150.27
2019-01-09T15:30:29.126Z,140.57
2019-01-09T15:32:34.063Z,240.63
2019-01-09T15:34:43.335Z,146.53
2019-01-09T15:36:54.996Z,136.57
2019-01-09T15:39:02.199Z,128.40
2019-01-09T15:41:16.263Z,121.23
2019-01-09T15:43:22.756Z,121.77
2019-01-09T15:45:27.754Z,111.77
2019-01-09T15:47:35.700Z,111.30
2019-01-09T15:49:40.383Z,473.47
2019-01-09T15:51:46.598Z,798.87
2019-01-09T15:53:51.543Z,481.53
2019-01-09T15:55:59.050Z,160.40
2019-01-09T15:58:11.839Z,731.07
2019-01-09T16:00:28.647Z,874.17
2019-01-09T16:02:33.563Z,623.77
2019-01-09T16:04:39.709Z,999.90
2019-01-09T16:06:44.724Z,607.00
2019-01-09T16:08:51.574Z,336.47
2019-01-09T16:11:01.787Z,188.80
2019-01-09T16:13:17.243Z,124.90
2019-01-09T16:15:25.404Z,221.33
2019-01-09T16:17:33.586Z,663.07
2019-01-09T16:19:39.852Z,517.20
2019-01-09T16:21:44.654Z,602.30
2019-01-09T16:23:52.945Z,720.63
2019-01-09T16:25:57.743Z,854.60
2019-01-09T16:28:10.289Z,714.23
2019-01-09T16:30:58.681Z,954.50
2019-01-09T16:33:04.650Z,999.90
2019-01-09T16:35:08.915Z,855.77
2019-01-09T16:37:14.035Z,999.90
2019-01-09T16:39:21.527Z,962.13
2019-01-09T16:41:25.850Z,783.80
2019-01-09T16:43:32.492Z,594.47
2019-01-09T16:45:43.177Z,715.60
2019-01-09T16:47:51.377Z,614.43
2019-01-09T16:49:58.134Z,381.13
2019-01-09T16:52:06.339Z,342.20
2019-01-09T16:54:11.463Z,460.63
2019-01-09T16:56:16.296Z,595.63
2019-01-09T16:58:21.627Z,478.37
2019-01-09T17:00:34.971Z,120.10
2019-01-09T17:02:51.155Z,63.43
2019-01-09T17:04:56.634Z,50.23
2019-01-09T17:07:01.417Z,44.10
2019-01-09T17:09:09.349Z,42.37
2019-01-09T17:11:20.180Z,41.30
2019-01-09T17:13:27.434Z,37.63
2019-01-09T17:15:32.370Z,37.33
2019-01-09T17:17:38.674Z,35.17
2019-01-09T17:19:45.222Z,34.50
2019-01-09T17:21:56.577Z,35.10
2019-01-09T17:23:58.694Z,34.33
2019-01-09T17:26:04.618Z,32.43
2019-01-09T17:28:09.867Z,31.60
2019-01-09T17:30:21.285Z,33.00
2019-01-09T17:32:30.129Z,30.40
2019-01-09T17:34:39.225Z,31.07
2019-01-09T17:36:50.226Z,27.63
2019-01-09T17:39:01.945Z,29.50
2019-01-09T17:41:12.674Z,28.90
2019-01-09T17:43:19.829Z,27.40
2019-01-09T17:45:34.493Z,26.83
2019-01-09T17:47:43.432Z,27.50
2019-01-09T17:49:52.399Z,25.87
2019-01-09T17:52:01.378Z,26.93
2019-01-09T17:54:08.445Z,25.20
2019-01-09T17:56:13.018Z,23.57
2019-01-09T17:58:18.608Z,25.80
2019-01-09T18:00:26.860Z,24.83
2019-01-09T18:02:31.420Z,25.73
2019-01-09T18:04:36.744Z,23.97
2019-01-09T18:06:41.425Z,24.50
2019-01-09T18:08:48.214Z,24.67
2019-01-09T18:10:55.654Z,23.23
2019-01-09T18:13:08.391Z,23.77
2019-01-09T18:15:15.539Z,22.57
2019-01-09T18:17:23.456Z,22.60
2019-01-09T18:19:28.296Z,22.30
2019-01-09T18:21:32.937Z,20.97
2019-01-09T18:23:37.563Z,20.30
2019-01-09T18:25:42.275Z,22.40
2019-01-09T18:27:48.892Z,21.57
2019-01-09T18:29:56.163Z,20.20
2019-01-09T18:32:38.829Z,18.37
2019-01-09T18:35:02.415Z,19.87
2019-01-09T18:37:57.341Z,20.87
2019-01-09T18:41:04.499Z,19.67
2019-01-09T18:43:38.323Z,19.53
2019-01-09T18:46:13.670Z,19.23
2019-01-09T18:48:55.660Z,18.87
2019-01-09T18:51:39.869Z,17.37
2019-01-09T18:53:55.442Z,19.23
2019-01-09T18:56:04.828Z,17.57
2019-01-09T18:58:14.757Z,17.40
2019-01-09T19:00:23.147Z,17.03
2019-01-09T19:02:28.466Z,16.53
2019-01-09T19:04:33.223Z,16.03
2019-01-09T19:06:40.015Z,15.70
2019-01-09T19:08:44.740Z,14.87
2019-01-09T19:10:49.598Z,16.40
2019-01-09T19:12:57.456Z,15.17
2019-01-09T19:15:13.895Z,14.40
2019-01-09T19:17:19.050Z,15.20
2019-01-09T19:19:23.542Z,14.27
2019-01-09T19:21:28.480Z,14.23
2019-01-09T19:23:33.938Z,14.27
2019-01-09T19:25:39.082Z,15.03
2019-01-09T19:27:45.234Z,13.33
2019-01-09T19:29:49.745Z,13.77
2019-01-09T19:31:54.093Z,13.40
2019-01-09T19:33:58.540Z,13.20
2019-01-09T19:36:04.330Z,13.13
2019-01-09T19:38:10.027Z,13.07
2019-01-09T19:40:15.644Z,13.30
2019-01-09T19:42:19.871Z,12.63
2019-01-09T19:44:24.251Z,12.17
2019-01-09T19:46:28.741Z,13.10
2019-01-09T19:48:38.134Z,13.07
2019-01-09T19:50:54.539Z,12.33
2019-01-09T19:52:59.022Z,11.80
2019-01-09T19:55:05.096Z,12.97
2019-01-09T19:57:09.933Z,12.60
2019-01-09T19:59:18.317Z,10.87
2019-01-09T20:01:23.158Z,11.30
2019-01-09T20:03:28.019Z,11.33
2019-01-09T20:05:35.743Z,12.33
2019-01-09T20:07:43.035Z,11.10
2019-01-09T20:09:48.814Z,11.30
2019-01-09T20:11:57.469Z,10.23
2019-01-09T20:14:03.009Z,10.63
2019-01-09T20:16:07.409Z,10.70
2019-01-09T20:18:11.913Z,10.20
2019-01-09T20:20:17.383Z,10.00
2019-01-09T20:22:22.158Z,10.43
2019-01-09T20:24:26.601Z,10.17
2019-01-09T20:26:32.117Z,10.43
2019-01-09T20:28:36.817Z,9.97
2019-01-09T20:30:42.360Z,11.20
2019-01-09T20:32:49.702Z,9.93
2019-01-09T20:34:58.380Z,10.10
2019-01-09T20:37:00.986Z,10.10
2019-01-09T20:39:08.725Z,10.10
2019-01-09T20:41:13.856Z,10.00
2019-01-09T20:43:18.432Z,9.57
2019-01-09T20:45:22.896Z,9.80
2019-01-09T20:47:27.111Z,8.90
2019-01-09T20:49:31.409Z,9.57
2019-01-09T20:51:35.935Z,8.93
2019-01-09T20:53:40.575Z,9.23
2019-01-09T20:55:47.995Z,8.93
2019-01-09T20:57:55.325Z,7.97
2019-01-09T21:00:04.205Z,8.00
2019-01-09T21:02:10.826Z,8.13
2019-01-09T21:04:15.390Z,7.70
2019-01-09T21:06:19.777Z,7.80
2019-01-09T21:08:24.471Z,6.40
2019-01-09T21:10:28.984Z,7.97
2019-01-09T21:12:35.411Z,7.63
2019-01-09T21:14:40.562Z,6.20
2019-01-09T21:16:45.126Z,6.40
2019-01-09T21:18:53.105Z,6.53
2019-01-09T21:21:03.635Z,5.83
2019-01-09T21:23:07.845Z,7.30
2019-01-09T21:25:12.864Z,6.47
2019-01-09T21:27:17.898Z,6.03
2019-01-09T21:29:22.023Z,6.20
2019-01-09T21:31:26.195Z,6.40
2019-01-09T21:33:30.752Z,6.20
2019-01-09T21:35:36.270Z,6.00
2019-01-09T21:37:40.753Z,6.30
2019-01-09T21:39:45.704Z,5.90
2019-01-09T21:41:53.407Z,5.80
2019-01-09T21:44:16.130Z,5.90
2019-01-09T21:46:20.831Z,5.83
2019-01-09T21:48:25.588Z,5.20
2019-01-09T21:50:33.074Z,5.57
2019-01-09T21:52:38.477Z,5.00
2019-01-09T21:54:43.161Z,5.80
2019-01-09T21:56:47.633Z,4.50
2019-01-09T21:58:52.783Z,4.70
2019-01-09T22:01:00.310Z,4.87
2019-01-09T22:03:15.266Z,5.27
2019-01-09T22:05:21.604Z,4.10
2019-01-09T22:07:25.896Z,4.07
2019-01-09T22:09:30.783Z,82.13
2019-01-09T22:11:34.909Z,365.87
2019-01-09T22:13:39.287Z,319.37
2019-01-09T22:15:51.575Z,474.50
2019-01-09T22:17:56.821Z,499.70
2019-01-09T22:20:03.649Z,658.73
2019-01-09T22:22:17.593Z,818.43
2019-01-09T22:24:21.919Z,449.67
2019-01-09T22:26:26.263Z,140.27
2019-01-09T22:28:30.400Z,46.40
2019-01-09T22:30:34.637Z,12.30
2019-01-09T22:32:38.754Z,5.23
2019-01-09T22:34:43.220Z,3.97
2019-01-09T22:36:49.266Z,4.07
2019-01-09T22:38:53.471Z,3.50
2019-01-09T22:41:01.318Z,3.43
2019-01-09T22:43:08.600Z,3.27
2019-01-09T22:45:16.848Z,3.10
2019-01-09T22:47:22.482Z,2.63
2019-01-09T22:49:27.629Z,3.00
2019-01-09T22:51:33.307Z,2.37
2019-01-09T22:53:43.213Z,2.53
2019-01-09T22:55:53.472Z,2.90
2019-01-09T22:57:57.861Z,42.37
2019-01-09T23:00:03.411Z,302.50
2019-01-09T23:02:08.031Z,511.60
2019-01-09T23:04:16.539Z,369.93
2019-01-09T23:06:21.799Z,320.97
2019-01-09T23:08:26.162Z,94.83
2019-01-09T23:10:33.921Z,22.50
2019-01-09T23:12:40.556Z,5.70
2019-01-09T23:14:50.893Z,2.93
2019-01-09T23:16:57.375Z,577.63
2019-01-09T23:19:07.238Z,241.80
2019-01-09T23:21:12.175Z,17.47
2019-01-09T23:23:17.669Z,398.20
2019-01-09T23:25:24.555Z,476.87
2019-01-09T23:27:31.207Z,34.43
2019-01-09T23:29:36.894Z,5.53
2019-01-09T23:31:43.650Z,868.20
2019-01-09T23:33:54.625Z,804.13
2019-01-09T23:36:02.772Z,160.10
2019-01-09T23:38:06.988Z,23.80
2019-01-09T23:40:13.363Z,560.47
2019-01-09T23:42:17.614Z,52.60
2019-01-09T23:44:29.247Z,488.03
2019-01-09T23:46:34.757Z,547.43
2019-01-09T23:48:39.534Z,136.53
2019-01-09T23:50:44.795Z,24.60
2019-01-09T23:52:54.941Z,6.83
2019-01-09T23:55:08.241Z,2.77
2019-01-09T23:57:12.586Z,1.87
2019-01-09T23:59:17.087Z,1.83
